メインページ
METAR-TAF:

METAR-TAF

空港 :

アンカレッジ, アラスカ州, アメリカ合衆国

テッド・スティーブンス・アンカレッジ国際空港

緯度: 61-10-28N, 経度: 149-59-46W, 海抜: 44m

現時点の気象観測

当レポートは46分前の09:53(UTC)に作成
無風
気温 -8°C
湿度 79%
気圧 1002 hPa
視程: 16.1km
高度10000ftの曇り

METAR: PANC 190953Z 00000KT 10SM OVC100 M08/M11 A2959 RMK AO2 SLP024 T10831106 $

時間: 01:39 (10:39 UTC)

予報

当レポートは4時間59分前の05:40(UTC)に作成
予報は19日の 06時(UTC)から 20日の 12時(UTC)まで有効
変向風 4kt
視程: 10km
高度20000ftの雲は散在している
19日の 0900時(UTC)から
の風 5kt
視程: 10km
高度4500ftの雲はほとんどない
高度6000ftの曇り
近辺でにわか雨
19日の 1300時(UTC)から
の風 8kt
視程: 4.8km
高度1000ftの雲は散在している
高度2500ftの曇り
小雪, 靄
19日の 2100時(UTC)から
北/北東の風 8kt
視程: 9.7km
高度2000ftの雲は散在している
高度4000ftの曇り
弱いにわか雪, 靄
20日の 0200時(UTC)から
の風 10kt
視程: 10km
高度3000ftの雲はほとんどない
高度5000ftの曇り

TAF: PANC 190540Z 1906/2012 VRB04KT P6SM SCT200 FM190900 01005KT P6SM VCSH FEW045 OVC060 FM191300 36008KT 3SM -SN BR SCT010 OVC025 FM192100 02008KT 6SM -SHSN BR SCT020 OVC040 FM200200 01010KT P6SM FEW030 OVC050

4,000以上の空港の気象観測と天気予報(METAR報とTAF報)

利用可能な観測所は地図上に黄色い丸と赤い丸で示す。

丸の上にカーソルを重ねると観測所名を参照できる。

次にクリックすると気象観測と天気予報を参照できる。

マップの切り替え:黒色「×」印の緑ボタンをクリックして拡大、「-」印の緑ボタンをクリックして縮小、緑色の三角印をクリックして隣りの地図に切り替え


METAR-TAF: